createdAt,value
2016-07-16T00:00:27.850Z,12.77
2016-07-16T00:01:27.875Z,12.79
2016-07-16T00:02:28.328Z,12.79
2016-07-16T00:03:27.874Z,12.81
2016-07-16T00:04:27.871Z,12.77
2016-07-16T00:05:28.293Z,12.92
2016-07-16T00:06:27.903Z,12.84
2016-07-16T00:07:28.119Z,13
2016-07-16T00:08:28.105Z,12.95
2016-07-16T00:09:28.054Z,13
2016-07-16T00:10:28.054Z,12.97
2016-07-16T00:11:28.040Z,13.12
2016-07-16T00:12:27.893Z,13.09
2016-07-16T00:13:27.866Z,13.07
2016-07-16T00:14:27.892Z,13.14
2016-07-16T00:15:28.043Z,13.24
2016-07-16T00:16:27.874Z,13.27
2016-07-16T00:17:27.864Z,13.22
2016-07-16T00:18:28.006Z,13.37
2016-07-16T00:19:28.031Z,13.2
2016-07-16T00:20:27.897Z,13.32
2016-07-16T00:21:28.027Z,13.4
2016-07-16T00:22:27.874Z,13.33
2016-07-16T00:23:27.928Z,13.33
2016-07-16T00:24:27.897Z,13.37
2016-07-16T00:25:27.998Z,13.47
2016-07-16T00:26:28.455Z,13.59
2016-07-16T00:27:27.917Z,13.43
2016-07-16T00:28:27.870Z,13.56
2016-07-16T00:29:27.902Z,13.54
2016-07-16T00:30:27.867Z,13.58
2016-07-16T00:31:27.883Z,13.56
2016-07-16T00:32:27.889Z,13.69
2016-07-16T00:33:27.880Z,13.67
2016-07-16T00:34:27.998Z,13.7
2016-07-16T00:35:28.171Z,13.74
2016-07-16T00:36:27.888Z,13.8
2016-07-16T00:37:27.880Z,13.77
2016-07-16T00:38:27.912Z,13.71
2016-07-16T00:39:27.903Z,13.83
2016-07-16T00:40:27.875Z,13.83
2016-07-16T00:41:27.944Z,13.81
2016-07-16T00:42:27.898Z,13.8
2016-07-16T00:43:28.205Z,13.89
2016-07-16T00:44:27.889Z,13.88
2016-07-16T00:45:27.897Z,13.99
2016-07-16T00:46:28.028Z,14.04
2016-07-16T00:47:27.959Z,13.94
2016-07-16T00:48:27.885Z,13.96
2016-07-16T00:49:28.001Z,13.99
2016-07-16T00:50:28.190Z,14.01
2016-07-16T00:51:27.904Z,14.1
2016-07-16T00:52:27.954Z,14.04
2016-07-16T00:53:27.885Z,14.16
2016-07-16T00:54:27.902Z,14.09
2016-07-16T00:55:27.875Z,14.1
2016-07-16T00:56:28.086Z,14.07
2016-07-16T00:57:27.867Z,14.12
2016-07-16T00:58:27.956Z,14.25
2016-07-16T00:59:28.049Z,14.2
2016-07-16T01:00:27.934Z,14.14
2016-07-16T01:01:29.007Z,14.27
2016-07-16T01:02:27.900Z,14.17
2016-07-16T01:03:27.905Z,14.24
2016-07-16T01:04:28.117Z,14.25
2016-07-16T01:05:28.090Z,14.17
2016-07-16T01:06:28.267Z,14.34
2016-07-16T01:07:27.913Z,14.35
2016-07-16T01:08:28.060Z,14.28
2016-07-16T01:09:27.999Z,14.37
2016-07-16T01:10:27.928Z,14.32
2016-07-16T01:11:27.908Z,14.38
2016-07-16T01:12:27.937Z,14.35
2016-07-16T01:13:27.936Z,14.25
2016-07-16T01:14:27.938Z,14.38
2016-07-16T01:15:27.917Z,14.44
2016-07-16T01:16:27.918Z,14.39
2016-07-16T01:17:27.937Z,14.38
2016-07-16T01:18:27.906Z,14.46
2016-07-16T01:19:27.927Z,14.42
2016-07-16T01:20:27.966Z,14.39
2016-07-16T01:21:27.968Z,14.5
2016-07-16T01:22:27.955Z,14.5
2016-07-16T01:23:27.953Z,14.49
2016-07-16T01:24:27.972Z,14.53
2016-07-16T01:25:27.945Z,14.54
2016-07-16T01:26:27.974Z,14.47
2016-07-16T01:27:27.959Z,14.53
2016-07-16T01:28:27.971Z,14.46
2016-07-16T01:29:27.938Z,14.46
2016-07-16T01:30:27.927Z,14.44
2016-07-16T01:31:27.938Z,14.49
2016-07-16T01:32:27.967Z,14.52
2016-07-16T01:33:27.965Z,14.52
2016-07-16T01:34:27.967Z,14.57
2016-07-16T01:35:27.941Z,14.64
2016-07-16T01:36:27.925Z,14.61
2016-07-16T01:37:27.968Z,14.53
2016-07-16T01:38:27.968Z,14.6
2016-07-16T01:39:27.948Z,14.6
2016-07-16T01:40:27.970Z,14.56
2016-07-16T01:41:27.968Z,14.54
2016-07-16T01:42:27.940Z,14.52
2016-07-16T01:43:27.971Z,14.64
2016-07-16T01:44:27.970Z,14.56
2016-07-16T01:45:27.945Z,14.5
2016-07-16T01:46:27.967Z,14.53
2016-07-16T01:47:27.958Z,14.67
2016-07-16T01:48:28.650Z,14.64
2016-07-16T01:49:27.970Z,14.67
2016-07-16T01:50:27.970Z,14.53
2016-07-16T01:51:27.969Z,14.49
2016-07-16T01:52:27.958Z,14.49
2016-07-16T01:53:27.965Z,14.64
2016-07-16T01:54:27.974Z,14.56
2016-07-16T01:55:27.946Z,14.65
2016-07-16T01:56:27.970Z,14.57
2016-07-16T01:57:27.937Z,14.61
2016-07-16T01:58:27.951Z,14.68
2016-07-16T01:59:27.964Z,14.69
2016-07-16T02:00:27.970Z,14.62
2016-07-16T02:01:28.533Z,14.65
2016-07-16T02:02:27.968Z,14.71
2016-07-16T02:03:27.976Z,14.62
2016-07-16T02:04:27.974Z,14.65
2016-07-16T02:05:27.963Z,14.65
2016-07-16T02:06:27.971Z,14.64
2016-07-16T02:07:27.975Z,14.65
2016-07-16T02:08:27.999Z,14.68
2016-07-16T02:09:27.976Z,14.67
2016-07-16T02:10:27.980Z,14.62
2016-07-16T02:11:27.970Z,14.74
2016-07-16T02:12:27.971Z,14.71
2016-07-16T02:13:28.006Z,14.69
2016-07-16T02:14:27.956Z,14.64
2016-07-16T02:15:27.969Z,14.65
2016-07-16T02:16:27.973Z,14.68
2016-07-16T02:17:27.980Z,14.71
2016-07-16T02:18:27.993Z,14.74
2016-07-16T02:19:27.978Z,14.78
2016-07-16T02:20:27.984Z,14.72
2016-07-16T02:21:28.594Z,14.71
2016-07-16T02:22:28.026Z,14.74
2016-07-16T02:23:27.994Z,14.67
2016-07-16T02:24:28.029Z,14.75
2016-07-16T02:25:28.007Z,14.75
2016-07-16T02:26:28.058Z,14.69
2016-07-16T02:27:28.092Z,14.86
2016-07-16T02:28:28.028Z,14.81
2016-07-16T02:29:28.004Z,14.74
2016-07-16T02:30:28.010Z,14.84
2016-07-16T02:31:28.087Z,14.8
2016-07-16T02:32:27.987Z,14.81
2016-07-16T02:33:27.996Z,14.8
2016-07-16T02:34:28.019Z,14.81
2016-07-16T02:35:27.980Z,14.81
2016-07-16T02:36:27.987Z,14.81
2016-07-16T02:37:28.000Z,14.88
2016-07-16T02:38:27.990Z,14.9
2016-07-16T02:39:27.999Z,14.84
2016-07-16T02:40:28.022Z,14.84
2016-07-16T02:41:28.005Z,14.83
2016-07-16T02:42:28.002Z,14.86
2016-07-16T02:43:28.003Z,14.9
2016-07-16T02:44:27.988Z,14.8
2016-07-16T02:45:27.976Z,14.86
2016-07-16T02:46:28.000Z,14.84
2016-07-16T02:47:28.010Z,14.81
2016-07-16T02:48:28.009Z,14.93
2016-07-16T02:49:28.007Z,14.86
2016-07-16T02:50:28.032Z,14.98
2016-07-16T02:51:28.023Z,14.87
2016-07-16T02:52:28.032Z,14.88
2016-07-16T02:53:28.006Z,14.86
2016-07-16T02:54:28.005Z,14.94
2016-07-16T02:55:28.015Z,14.87
2016-07-16T02:56:27.995Z,14.87
2016-07-16T02:57:28.026Z,14.93
2016-07-16T02:58:28.004Z,14.99
2016-07-16T02:59:27.999Z,14.95
2016-07-16T03:00:28.010Z,15.05
2016-07-16T03:01:27.989Z,15.05
2016-07-16T03:02:28.035Z,14.93
2016-07-16T03:03:28.020Z,14.93
2016-07-16T03:04:28.005Z,15.03
2016-07-16T03:05:28.033Z,15.02
2016-07-16T03:06:28.026Z,15.11
2016-07-16T03:07:28.000Z,15.01
2016-07-16T03:08:28.021Z,15.13
2016-07-16T03:09:28.023Z,15.06
2016-07-16T03:10:28.031Z,14.94
2016-07-16T03:11:28.038Z,15.09
2016-07-16T03:12:28.004Z,15.12
2016-07-16T03:13:27.990Z,15.12
2016-07-16T03:14:28.025Z,15.21
2016-07-16T03:15:28.032Z,15.12
2016-07-16T03:16:28.014Z,15.12
2016-07-16T03:17:28.026Z,15.15
2016-07-16T03:18:28.028Z,15.15
2016-07-16T03:19:28.019Z,15.2
2016-07-16T03:20:28.005Z,15.21
2016-07-16T03:21:28.032Z,15.2
2016-07-16T03:22:28.033Z,15.26
2016-07-16T03:23:28.032Z,15.26
2016-07-16T03:24:28.035Z,15.24
2016-07-16T03:25:28.069Z,15.27
2016-07-16T03:26:28.032Z,15.3
2016-07-16T03:27:28.123Z,15.28
2016-07-16T03:28:28.070Z,15.28
2016-07-16T03:29:28.050Z,15.26
2016-07-16T03:30:28.064Z,15.39
2016-07-16T03:31:28.078Z,15.38
2016-07-16T03:32:28.072Z,15.35
2016-07-16T03:33:28.062Z,15.31
2016-07-16T03:34:28.054Z,15.31
2016-07-16T03:35:28.044Z,15.43
2016-07-16T03:36:28.064Z,15.41
2016-07-16T03:37:28.093Z,15.42
2016-07-16T03:38:28.066Z,15.45
2016-07-16T03:39:28.056Z,15.42
2016-07-16T03:40:28.066Z,15.46
2016-07-16T03:41:28.084Z,15.52
2016-07-16T03:42:28.322Z,15.43
2016-07-16T03:43:28.064Z,15.45
2016-07-16T03:44:28.060Z,15.52
2016-07-16T03:45:28.048Z,15.52
2016-07-16T03:46:28.051Z,15.6
2016-07-16T03:47:28.050Z,15.43
2016-07-16T03:48:28.057Z,15.54
2016-07-16T03:49:28.017Z,15.48
2016-07-16T03:50:28.021Z,15.46
2016-07-16T03:51:28.033Z,15.48
2016-07-16T03:52:28.062Z,15.51
2016-07-16T03:53:28.093Z,15.51
2016-07-16T03:54:28.054Z,15.52
2016-07-16T03:55:28.065Z,15.59
2016-07-16T03:56:28.039Z,15.52
2016-07-16T03:57:28.068Z,15.57
2016-07-16T03:58:28.100Z,15.56
2016-07-16T03:59:28.057Z,15.45
2016-07-16T04:00:28.068Z,15.63
2016-07-16T04:01:28.047Z,15.63
2016-07-16T04:02:28.043Z,15.63
2016-07-16T04:03:28.057Z,15.49
2016-07-16T04:04:28.083Z,15.6
2016-07-16T04:05:28.065Z,15.6
2016-07-16T04:06:28.079Z,15.7
2016-07-16T04:07:28.057Z,15.64
2016-07-16T04:08:28.816Z,15.74
2016-07-16T04:09:28.058Z,15.66
2016-07-16T04:10:28.064Z,15.72
2016-07-16T04:11:28.081Z,15.75
2016-07-16T04:12:28.082Z,15.76
2016-07-16T04:13:28.094Z,15.7
2016-07-16T04:14:28.078Z,15.74
2016-07-16T04:15:28.096Z,15.78
2016-07-16T04:16:28.097Z,15.75
2016-07-16T04:17:28.090Z,15.7
2016-07-16T04:18:28.067Z,15.78
2016-07-16T04:19:28.081Z,15.81
2016-07-16T04:20:28.080Z,15.84
2016-07-16T04:21:28.093Z,15.75
2016-07-16T04:22:28.096Z,15.84
2016-07-16T04:23:28.104Z,15.84
2016-07-16T04:24:28.065Z,15.82
2016-07-16T04:25:28.092Z,15.76
2016-07-16T04:26:28.078Z,15.88
2016-07-16T04:27:28.082Z,15.92
2016-07-16T04:28:28.064Z,15.88
2016-07-16T04:29:28.096Z,15.93
2016-07-16T04:30:28.088Z,15.93
2016-07-16T04:31:28.082Z,15.99
2016-07-16T04:32:28.098Z,16
2016-07-16T04:33:28.096Z,15.89
2016-07-16T04:34:28.096Z,15.97
2016-07-16T04:35:28.082Z,16.01
2016-07-16T04:36:28.072Z,15.97
2016-07-16T04:37:28.098Z,16.04
2016-07-16T04:38:28.098Z,15.96
2016-07-16T04:39:28.093Z,16.12
2016-07-16T04:40:28.109Z,16.03
2016-07-16T04:41:28.099Z,16.06
2016-07-16T04:42:28.123Z,16.06
2016-07-16T04:43:28.127Z,16.09
2016-07-16T04:44:28.171Z,16.09
2016-07-16T04:45:28.145Z,16.07
2016-07-16T04:46:28.129Z,16.25
2016-07-16T04:47:28.113Z,16.2
2016-07-16T04:48:28.095Z,16.14
2016-07-16T04:49:28.119Z,16.25
2016-07-16T04:50:28.126Z,16.15
2016-07-16T04:51:28.104Z,16.25
2016-07-16T04:52:28.099Z,16.25
2016-07-16T04:53:28.077Z,16.15
2016-07-16T04:54:28.123Z,16.26
2016-07-16T04:55:28.128Z,16.23
2016-07-16T04:56:28.116Z,16.22
2016-07-16T04:57:28.127Z,16.3
2016-07-16T04:58:28.112Z,16.22
2016-07-16T04:59:28.101Z,16.31
2016-07-16T05:00:28.098Z,16.27
2016-07-16T05:01:28.116Z,16.27
2016-07-16T05:02:28.113Z,16.26
2016-07-16T05:03:28.130Z,16.3
2016-07-16T05:04:28.096Z,16.37
2016-07-16T05:05:28.100Z,16.38
2016-07-16T05:06:28.130Z,16.42
2016-07-16T05:07:28.126Z,16.53
2016-07-16T05:08:28.120Z,16.5
2016-07-16T05:09:28.115Z,16.56
2016-07-16T05:10:28.161Z,16.59
2016-07-16T05:11:28.157Z,16.68
2016-07-16T05:12:28.146Z,16.71
2016-07-16T05:13:28.131Z,16.89
2016-07-16T05:14:28.158Z,16.81
2016-07-16T05:15:28.152Z,16.92
2016-07-16T05:16:28.158Z,16.88
2016-07-16T05:17:28.178Z,16.96
2016-07-16T05:18:28.160Z,17.13
2016-07-16T05:19:28.165Z,17.08
2016-07-16T05:20:28.158Z,17.14
2016-07-16T05:21:28.142Z,17.26
2016-07-16T05:22:28.161Z,17.28
2016-07-16T05:23:28.193Z,17.33
2016-07-16T05:24:28.161Z,17.44
2016-07-16T05:25:28.123Z,17.36
2016-07-16T05:26:28.153Z,17.53
2016-07-16T05:27:28.132Z,17.54
2016-07-16T05:28:28.127Z,17.63
2016-07-16T05:29:28.142Z,17.62
2016-07-16T05:30:28.134Z,17.69
2016-07-16T05:31:28.125Z,17.69
2016-07-16T05:32:28.141Z,17.74
2016-07-16T05:33:28.108Z,17.76
2016-07-16T05:34:28.121Z,17.92
2016-07-16T05:35:28.122Z,17.85
2016-07-16T05:36:28.132Z,17.87
2016-07-16T05:37:28.134Z,17.81
2016-07-16T05:38:28.162Z,17.87
2016-07-16T05:39:28.147Z,17.91
2016-07-16T05:40:28.204Z,17.99
2016-07-16T05:41:28.168Z,17.84
2016-07-16T05:42:28.159Z,17.94
2016-07-16T05:43:28.162Z,17.84
2016-07-16T05:44:28.160Z,17.88
2016-07-16T05:45:28.164Z,17.87
2016-07-16T05:46:28.184Z,17.87
2016-07-16T05:47:28.163Z,17.82
2016-07-16T05:48:28.160Z,17.85
2016-07-16T05:49:28.163Z,17.91
2016-07-16T05:50:28.167Z,17.87
2016-07-16T05:51:28.186Z,17.87
2016-07-16T05:52:28.191Z,17.91
2016-07-16T05:53:28.175Z,17.89
2016-07-16T05:54:28.229Z,17.91
2016-07-16T05:55:28.153Z,17.87
2016-07-16T05:56:28.714Z,17.84
2016-07-16T05:57:28.161Z,17.88
2016-07-16T05:58:28.194Z,17.89
2016-07-16T05:59:28.193Z,17.92
2016-07-16T06:00:28.153Z,17.99
2016-07-16T06:01:28.192Z,17.92
2016-07-16T06:02:28.163Z,17.92
2016-07-16T06:03:28.191Z,17.95
2016-07-16T06:04:28.152Z,17.95
2016-07-16T06:05:28.215Z,17.89
2016-07-16T06:06:28.190Z,18
2016-07-16T06:07:28.200Z,18.07
2016-07-16T06:08:28.206Z,18.02
2016-07-16T06:09:28.224Z,18.17
2016-07-16T06:10:28.198Z,18.13
2016-07-16T06:11:28.168Z,18.13
2016-07-16T06:12:28.222Z,18.17
2016-07-16T06:13:28.733Z,18.31
2016-07-16T06:14:28.218Z,18.31
2016-07-16T06:15:28.177Z,18.37
2016-07-16T06:16:28.194Z,18.4
2016-07-16T06:17:28.232Z,18.49
2016-07-16T06:18:28.192Z,18.37
2016-07-16T06:19:28.186Z,18.46
2016-07-16T06:20:28.193Z,18.59
2016-07-16T06:21:28.224Z,18.65
2016-07-16T06:22:28.192Z,18.67
2016-07-16T06:23:28.178Z,18.67
2016-07-16T06:24:28.194Z,18.76
2016-07-16T06:25:28.168Z,18.79
2016-07-16T06:26:28.176Z,18.86
2016-07-16T06:27:28.195Z,18.94
2016-07-16T06:28:28.222Z,19.14
2016-07-16T06:29:28.182Z,19.14
2016-07-16T06:30:28.193Z,19.29
2016-07-16T06:31:28.267Z,19.25
2016-07-16T06:32:28.223Z,19.33
2016-07-16T06:33:28.239Z,19.43
2016-07-16T06:34:28.186Z,19.6
2016-07-16T06:35:28.226Z,19.61
2016-07-16T06:36:28.195Z,19.79
2016-07-16T06:37:28.209Z,19.79
2016-07-16T06:38:28.376Z,19.76
2016-07-16T06:39:28.204Z,19.8
2016-07-16T06:40:28.222Z,19.83
2016-07-16T06:41:28.226Z,19.88
2016-07-16T06:42:28.206Z,19.8
2016-07-16T06:43:28.236Z,19.83
2016-07-16T06:44:28.196Z,19.91
2016-07-16T06:45:28.202Z,19.75
2016-07-16T06:46:28.222Z,19.75
2016-07-16T06:47:28.226Z,19.79
2016-07-16T06:48:28.207Z,19.66
2016-07-16T06:49:28.230Z,19.57
2016-07-16T06:50:28.243Z,19.5
2016-07-16T06:51:28.226Z,19.54
2016-07-16T06:52:28.234Z,19.47
2016-07-16T06:53:28.237Z,19.5
2016-07-16T06:54:28.207Z,19.54
2016-07-16T06:55:28.464Z,19.43
2016-07-16T06:56:28.403Z,19.38
2016-07-16T06:57:28.234Z,19.55
2016-07-16T06:58:28.243Z,19.46
2016-07-16T06:59:28.220Z,19.51
2016-07-16T07:00:28.229Z,19.58
2016-07-16T07:01:28.238Z,19.58
2016-07-16T07:02:28.217Z,19.58
2016-07-16T07:03:28.255Z,19.57
2016-07-16T07:04:28.286Z,19.63
2016-07-16T07:05:28.490Z,19.6
2016-07-16T07:06:28.630Z,19.6
2016-07-16T07:07:28.272Z,19.6
2016-07-16T07:08:28.291Z,19.58
2016-07-16T07:09:28.258Z,19.75
2016-07-16T07:10:28.255Z,19.78
2016-07-16T07:11:28.243Z,19.76
2016-07-16T07:12:28.234Z,19.6
2016-07-16T07:13:28.284Z,19.8
2016-07-16T07:14:28.274Z,19.72
2016-07-16T07:15:28.265Z,19.66
2016-07-16T07:16:28.290Z,19.65
2016-07-16T07:17:28.278Z,19.66
2016-07-16T07:18:28.316Z,19.72
2016-07-16T07:19:28.312Z,19.69
2016-07-16T07:20:28.249Z,19.63
2016-07-16T07:21:28.922Z,19.69
2016-07-16T07:22:28.250Z,19.63
2016-07-16T07:23:28.565Z,19.68
2016-07-16T07:24:28.574Z,19.66
2016-07-16T07:25:28.867Z,19.7
2016-07-16T07:26:28.271Z,19.6
2016-07-16T07:27:28.280Z,19.68
2016-07-16T07:28:28.253Z,19.58
2016-07-16T07:29:28.256Z,19.63
2016-07-16T07:30:28.259Z,19.69
2016-07-16T07:31:28.239Z,19.55
2016-07-16T07:32:28.684Z,19.72
2016-07-16T07:33:28.260Z,19.69
2016-07-16T07:34:28.288Z,19.48
2016-07-16T07:35:28.290Z,19.61
2016-07-16T07:36:28.290Z,19.68
2016-07-16T07:37:28.485Z,19.51
2016-07-16T07:38:28.278Z,19.53
2016-07-16T07:39:28.278Z,19.72
2016-07-16T07:40:28.274Z,19.55
2016-07-16T07:41:28.257Z,19.65
2016-07-16T07:42:28.305Z,19.7
2016-07-16T07:43:28.321Z,19.65
2016-07-16T07:44:28.280Z,19.66
2016-07-16T07:45:28.418Z,19.72
2016-07-16T07:46:28.335Z,19.78
2016-07-16T07:47:28.308Z,19.83
2016-07-16T07:48:28.293Z,19.8
2016-07-16T07:49:28.301Z,19.86
2016-07-16T07:50:28.327Z,19.83
2016-07-16T07:51:28.313Z,19.8
2016-07-16T07:52:28.289Z,19.86
2016-07-16T07:53:28.351Z,19.84
2016-07-16T07:54:28.618Z,19.86
2016-07-16T07:55:28.302Z,19.91
2016-07-16T07:56:28.290Z,19.87
2016-07-16T07:57:28.275Z,19.93
2016-07-16T07:58:28.984Z,19.94
2016-07-16T07:59:28.460Z,20.03
2016-07-16T08:00:28.318Z,20.13
2016-07-16T08:01:28.877Z,20.2
2016-07-16T08:02:28.632Z,20.27
2016-07-16T08:03:28.283Z,20.23
2016-07-16T08:04:28.683Z,20.15
2016-07-16T08:05:28.350Z,20.16
2016-07-16T08:06:28.290Z,20.23
2016-07-16T08:07:28.440Z,20.3
2016-07-16T08:08:29.064Z,20.47
2016-07-16T08:09:29.148Z,20.53
2016-07-16T08:10:28.320Z,20.79
2016-07-16T08:11:28.669Z,20.86
2016-07-16T08:12:28.380Z,20.98
2016-07-16T08:13:28.292Z,21.04
2016-07-16T08:14:28.319Z,21.01
2016-07-16T08:15:28.310Z,21.19
2016-07-16T08:16:28.309Z,21.19
2016-07-16T08:17:29.435Z,21.38
2016-07-16T08:18:28.322Z,21.35
2016-07-16T08:19:28.348Z,21.44
2016-07-16T08:20:28.326Z,21.51
2016-07-16T08:21:28.323Z,21.44
2016-07-16T08:22:28.294Z,21.46
2016-07-16T08:23:28.328Z,21.44
2016-07-16T08:24:28.326Z,21.35
2016-07-16T08:25:28.327Z,21.42
2016-07-16T08:26:28.315Z,21.24
2016-07-16T08:27:28.330Z,21.26
2016-07-16T08:28:28.345Z,21.29
2016-07-16T08:29:28.306Z,21.3
2016-07-16T08:30:28.322Z,21.27
2016-07-16T08:31:28.321Z,21.19
2016-07-16T08:32:28.313Z,21.23
2016-07-16T08:33:28.305Z,21.06
2016-07-16T08:34:28.326Z,21.17
2016-07-16T08:35:28.379Z,21.13
2016-07-16T08:36:28.345Z,21.19
2016-07-16T08:37:28.380Z,21.27
2016-07-16T08:38:28.314Z,21.29
2016-07-16T08:39:28.448Z,21.24
2016-07-16T08:40:28.549Z,21.39
2016-07-16T08:41:28.479Z,21.36
2016-07-16T08:42:28.577Z,21.34
2016-07-16T08:43:28.417Z,21.24
2016-07-16T08:44:29.016Z,21.26
2016-07-16T08:45:28.401Z,21.27
2016-07-16T08:46:28.439Z,21.32
2016-07-16T08:47:28.513Z,21.24
2016-07-16T08:48:28.499Z,21.36
2016-07-16T08:49:28.328Z,21.41
2016-07-16T08:50:28.354Z,21.57
2016-07-16T08:51:28.324Z,21.61
2016-07-16T08:52:28.326Z,21.67
2016-07-16T08:53:28.551Z,21.71
2016-07-16T08:54:28.358Z,21.72
2016-07-16T08:55:28.358Z,21.85
2016-07-16T08:56:28.387Z,21.85
2016-07-16T08:57:28.689Z,21.76
2016-07-16T08:58:28.412Z,21.81
2016-07-16T08:59:28.365Z,21.82
2016-07-16T09:00:28.444Z,21.78
2016-07-16T09:01:28.414Z,21.82
2016-07-16T09:02:28.387Z,21.9
2016-07-16T09:03:28.367Z,22.02
2016-07-16T09:04:28.714Z,22.12
2016-07-16T09:05:28.354Z,22.22
2016-07-16T09:06:28.852Z,22.1
2016-07-16T09:07:28.809Z,22.17
2016-07-16T09:08:28.773Z,22.19
2016-07-16T09:09:28.485Z,22.2
2016-07-16T09:10:28.474Z,22.17
2016-07-16T09:11:28.387Z,22.28
2016-07-16T09:12:28.386Z,22.35
2016-07-16T09:13:28.385Z,22.44
2016-07-16T09:14:28.380Z,22.39
2016-07-16T09:15:28.532Z,22.31
2016-07-16T09:16:28.623Z,22.43
2016-07-16T09:17:28.339Z,22.5
2016-07-16T09:18:28.374Z,22.46
2016-07-16T09:19:28.368Z,22.59
2016-07-16T09:20:28.359Z,22.72
2016-07-16T09:21:28.364Z,22.84
2016-07-16T09:22:28.489Z,22.77
2016-07-16T09:23:28.428Z,22.83
2016-07-16T09:24:28.386Z,22.8
2016-07-16T09:25:28.353Z,22.8
2016-07-16T09:26:28.586Z,22.77
2016-07-16T09:27:28.382Z,22.9
2016-07-16T09:28:28.376Z,22.96
2016-07-16T09:29:28.510Z,22.97
2016-07-16T09:30:28.358Z,22.96
2016-07-16T09:31:28.414Z,22.92
2016-07-16T09:32:28.380Z,22.92
2016-07-16T09:33:28.350Z,22.99
2016-07-16T09:34:28.402Z,22.77
2016-07-16T09:35:28.356Z,22.77
2016-07-16T09:36:28.378Z,22.71
2016-07-16T09:37:28.657Z,22.89
2016-07-16T09:38:28.413Z,22.89
2016-07-16T09:39:28.382Z,22.87
2016-07-16T09:40:28.384Z,22.87
2016-07-16T09:41:28.419Z,22.77
2016-07-16T09:42:28.401Z,22.83
2016-07-16T09:43:28.394Z,22.69
2016-07-16T09:44:28.442Z,22.84
2016-07-16T09:45:28.411Z,22.82
2016-07-16T09:46:29.019Z,22.65
2016-07-16T09:47:28.454Z,22.77
2016-07-16T09:48:28.385Z,22.57
2016-07-16T09:49:28.437Z,22.68
2016-07-16T09:50:28.421Z,22.71
2016-07-16T09:51:28.411Z,22.54
2016-07-16T09:52:28.389Z,22.59
2016-07-16T09:53:28.375Z,22.52
2016-07-16T09:54:28.417Z,22.6
2016-07-16T09:55:28.395Z,22.56
2016-07-16T09:56:28.408Z,22.69
2016-07-16T09:57:28.409Z,22.75
2016-07-16T09:58:29.403Z,22.86
2016-07-16T09:59:28.414Z,23.17
2016-07-16T10:00:28.445Z,23.22
2016-07-16T10:01:29.054Z,23.05
2016-07-16T10:02:29.010Z,23.27
2016-07-16T10:03:28.444Z,23.19
2016-07-16T10:04:28.420Z,23.52
2016-07-16T10:05:28.478Z,23.5
2016-07-16T10:06:28.450Z,23.45
2016-07-16T10:07:28.447Z,23.39
2016-07-16T10:08:28.447Z,23.75
2016-07-16T10:09:28.496Z,23.75
2016-07-16T10:10:28.438Z,23.72
2016-07-16T10:11:28.410Z,24
2016-07-16T10:12:28.463Z,24.08
2016-07-16T10:13:28.434Z,23.92
2016-07-16T10:14:28.454Z,23.82
2016-07-16T10:15:28.462Z,23.64
2016-07-16T10:16:28.444Z,23.89
2016-07-16T10:17:28.478Z,24.05
2016-07-16T10:18:28.456Z,24.39
2016-07-16T10:19:28.441Z,24.68
2016-07-16T10:20:28.449Z,25.07
2016-07-16T10:21:28.450Z,24.97
2016-07-16T10:22:28.423Z,25
2016-07-16T10:23:28.439Z,25.06
2016-07-16T10:24:28.427Z,25.09
2016-07-16T10:25:28.604Z,25.1
2016-07-16T10:26:28.447Z,25.05
2016-07-16T10:27:28.483Z,25.02
2016-07-16T10:28:28.461Z,25.05
2016-07-16T10:29:28.440Z,24.98
2016-07-16T10:30:28.458Z,24.88
2016-07-16T10:31:28.453Z,24.88
2016-07-16T10:32:28.457Z,24.79
2016-07-16T10:33:28.543Z,24.75
2016-07-16T10:34:28.448Z,24.75
2016-07-16T10:35:28.484Z,24.67
2016-07-16T10:36:28.457Z,24.68
2016-07-16T10:37:28.449Z,24.73
2016-07-16T10:38:28.453Z,24.88
2016-07-16T10:39:28.472Z,24.87
2016-07-16T10:40:28.478Z,25
2016-07-16T10:41:28.491Z,25.05
2016-07-16T10:42:28.526Z,25.15
2016-07-16T10:43:28.434Z,25.09
2016-07-16T10:44:28.458Z,25.13
2016-07-16T10:45:28.527Z,25.07
2016-07-16T10:46:28.478Z,25.17
2016-07-16T10:47:28.448Z,25.13
2016-07-16T10:48:28.461Z,25.24
2016-07-16T10:49:28.451Z,25.2
2016-07-16T10:50:28.458Z,25.32
2016-07-16T10:51:28.487Z,25.44
2016-07-16T10:52:28.462Z,25.44
2016-07-16T10:53:28.469Z,25.56
2016-07-16T10:54:28.516Z,25.52
2016-07-16T10:55:28.470Z,25.64
2016-07-16T10:56:28.869Z,25.46
2016-07-16T10:57:28.467Z,25.49
2016-07-16T10:58:28.515Z,25.46
2016-07-16T10:59:28.549Z,25.61
2016-07-16T11:00:29.493Z,25.57
2016-07-16T11:01:28.498Z,25.5
2016-07-16T11:02:28.836Z,25.56
2016-07-16T11:03:28.483Z,25.5
2016-07-16T11:04:28.512Z,25.46
2016-07-16T11:05:28.490Z,25.46
2016-07-16T11:06:28.783Z,25.46
2016-07-16T11:07:28.651Z,25.44
2016-07-16T11:08:28.722Z,25.52
2016-07-16T11:09:28.453Z,25.65
2016-07-16T11:10:28.483Z,25.69
2016-07-16T11:11:28.742Z,25.82
2016-07-16T11:12:28.508Z,25.82
2016-07-16T11:13:28.683Z,25.97
2016-07-16T11:14:28.508Z,25.98
2016-07-16T11:15:28.545Z,26.02
2016-07-16T11:16:28.507Z,26.18
2016-07-16T11:17:28.476Z,26.12
2016-07-16T11:18:28.505Z,26.04
2016-07-16T11:19:28.548Z,26.11
2016-07-16T11:20:28.538Z,26.05
2016-07-16T11:21:28.506Z,25.98
2016-07-16T11:22:28.548Z,25.98
2016-07-16T11:23:28.570Z,25.89
2016-07-16T11:24:28.543Z,25.79
2016-07-16T11:25:28.982Z,25.8
2016-07-16T11:26:28.563Z,25.8
2016-07-16T11:27:28.507Z,25.64
2016-07-16T11:28:28.605Z,25.68
2016-07-16T11:29:28.513Z,25.52
2016-07-16T11:30:28.543Z,25.47
2016-07-16T11:31:28.559Z,25.28
2016-07-16T11:32:28.498Z,25.25
2016-07-16T11:33:28.521Z,25.24
2016-07-16T11:34:28.487Z,25.19
2016-07-16T11:35:28.562Z,25.06
2016-07-16T11:36:28.499Z,25.13
2016-07-16T11:37:28.566Z,24.98
2016-07-16T11:38:28.541Z,24.98
2016-07-16T11:39:28.506Z,24.88
2016-07-16T11:40:28.848Z,24.87
2016-07-16T11:41:28.550Z,24.61
2016-07-16T11:42:28.976Z,24.8
2016-07-16T11:43:28.515Z,24.71
2016-07-16T11:44:28.540Z,24.76
2016-07-16T11:45:28.619Z,24.77
2016-07-16T11:46:28.533Z,24.67
2016-07-16T11:47:28.561Z,24.6
2016-07-16T11:48:28.543Z,24.79
2016-07-16T11:49:28.490Z,24.67
2016-07-16T11:50:28.626Z,24.53
2016-07-16T11:51:28.593Z,24.47
2016-07-16T11:52:28.519Z,24.37
2016-07-16T11:53:28.580Z,24.22
2016-07-16T11:54:28.546Z,24.26
2016-07-16T11:55:28.566Z,24.16
2016-07-16T11:56:28.584Z,24.24
2016-07-16T11:57:28.498Z,24.01
2016-07-16T11:58:28.528Z,23.98
2016-07-16T11:59:28.515Z,23.77
2016-07-16T12:00:28.598Z,24.12
2016-07-16T12:01:28.672Z,23.72
2016-07-16T12:02:28.547Z,24
2016-07-16T12:03:29.481Z,23.92
2016-07-16T12:04:28.548Z,24.02
2016-07-16T12:05:28.745Z,24.01
2016-07-16T12:06:28.539Z,24
2016-07-16T12:07:28.571Z,24.14
2016-07-16T12:08:28.550Z,24.02
2016-07-16T12:09:28.539Z,24.13
2016-07-16T12:10:28.789Z,24.1
2016-07-16T12:11:28.590Z,23.86
2016-07-16T12:12:28.540Z,24.17
2016-07-16T12:13:28.531Z,24.01
2016-07-16T12:14:28.579Z,24.08
2016-07-16T12:15:28.531Z,24.12
2016-07-16T12:16:28.666Z,24.1
2016-07-16T12:17:29.395Z,24.04
2016-07-16T12:18:28.685Z,23.94
2016-07-16T12:19:28.615Z,24.2
2016-07-16T12:20:28.634Z,24.05
2016-07-16T12:21:28.667Z,24.23
2016-07-16T12:22:28.552Z,24.17
2016-07-16T12:23:29.592Z,24.05
2016-07-16T12:24:28.523Z,24.01
2016-07-16T12:25:28.587Z,23.98
2016-07-16T12:26:28.696Z,23.94
2016-07-16T12:27:28.547Z,23.77
2016-07-16T12:28:28.615Z,23.98
2016-07-16T12:29:28.641Z,24.07
2016-07-16T12:30:28.640Z,24.16
2016-07-16T12:31:28.573Z,24.08
2016-07-16T12:32:28.575Z,24.19
2016-07-16T12:33:28.549Z,24.02
2016-07-16T12:34:28.552Z,24.34
2016-07-16T12:35:28.547Z,24.32
2016-07-16T12:36:28.566Z,24.2
2016-07-16T12:37:28.659Z,24.01
2016-07-16T12:38:28.667Z,24.23
2016-07-16T12:39:28.663Z,24.19
2016-07-16T12:40:28.579Z,24.26
2016-07-16T12:41:28.554Z,24.22
2016-07-16T12:42:28.577Z,23.83
2016-07-16T12:43:28.591Z,24.12
2016-07-16T12:44:28.592Z,24.1
2016-07-16T12:45:28.674Z,24
2016-07-16T12:46:28.713Z,24
2016-07-16T12:47:28.668Z,24.22
2016-07-16T12:48:28.613Z,24.16
2016-07-16T12:49:28.601Z,24.35
2016-07-16T12:50:28.729Z,24.67
2016-07-16T12:51:28.672Z,24.57
2016-07-16T12:52:28.625Z,24.75
2016-07-16T12:53:28.609Z,24.71
2016-07-16T12:54:28.730Z,24.95
2016-07-16T12:55:28.728Z,24.9
2016-07-16T12:56:28.612Z,25.12